Time;durP1;ratioP1;P1;durP2;ratioP2;P2;SDS_P1;SDS_P2;PMS_P1;PMS_P2;Temp;Humidity;BMP_temperature;BMP_pressure;BME280_temperature;BME280_humidity;BME280_pressure;Samples;Min_cycle;Max_cycle;Signal;HPM_P1;HPM_P2
2022/07/01 00:01:23;;;;;;;4.82;1.30;;;12.20;99.90;;;;;;4973483;28;20438;-59
2022/07/01 00:03:49;;;;;;;3.47;1.17;;;12.20;99.90;;;;;;4973341;28;20121;-50
2022/07/01 00:06:18;;;;;;;4.25;1.35;;;12.30;99.90;;;;;;4973771;28;20031;-57
2022/07/01 00:08:44;;;;;;;3.90;1.45;;;12.30;99.90;;;;;;4973247;28;20486;-48
2022/07/01 00:11:10;;;;;;;5.78;1.38;;;12.40;99.90;;;;;;4973227;28;20094;-55
2022/07/01 00:13:35;;;;;;;3.13;1.38;;;12.40;99.90;;;;;;4973261;28;20102;-50
2022/07/01 00:16:01;;;;;;;4.38;1.63;;;12.40;99.90;;;;;;4973075;28;20101;-56
2022/07/01 00:18:27;;;;;;;4.85;1.13;;;12.50;99.90;;;;;;4973110;28;20178;-55
2022/07/01 00:20:53;;;;;;;4.18;1.38;;;12.50;99.90;;;;;;4973219;28;20089;-53
2022/07/01 00:23:19;;;;;;;3.55;1.65;;;12.50;99.90;;;;;;4973018;28;20570;-57
2022/07/01 00:25:45;;;;;;;3.60;1.30;;;12.40;99.90;;;;;;4973046;28;20113;-56
2022/07/01 00:28:11;;;;;;;2.53;1.20;;;12.40;99.90;;;;;;4972900;28;20030;-48
2022/07/01 00:30:38;;;;;;;3.72;1.10;;;12.40;99.90;;;;;;4973062;28;20102;-59
2022/07/01 00:33:04;;;;;;;1.85;1.00;;;12.40;99.90;;;;;;4972853;28;20038;-61
2022/07/01 00:35:30;;;;;;;2.67;1.10;;;12.30;99.90;;;;;;4973236;28;20038;-55
2022/07/01 00:37:56;;;;;;;2.15;1.10;;;12.30;99.90;;;;;;4972957;28;20034;-52
2022/07/01 00:40:26;;;;;;;2.83;1.17;;;12.20;99.90;;;;;;4972773;28;20011;-47
2022/07/01 00:42:51;;;;;;;3.88;1.35;;;12.20;99.90;;;;;;4972530;28;20081;-53
2022/07/01 00:45:17;;;;;;;1.30;0.93;;;12.20;99.90;;;;;;4972178;28;20438;-56
2022/07/01 00:47:43;;;;;;;4.28;1.38;;;12.10;99.90;;;;;;4972819;28;20073;-49
2022/07/01 00:50:11;;;;;;;4.38;1.30;;;12.00;99.90;;;;;;4972466;28;20627;-52
2022/07/01 00:52:38;;;;;;;1.88;1.00;;;12.00;99.90;;;;;;4972684;28;20546;-54
2022/07/01 00:55:07;;;;;;;2.83;1.20;;;11.90;99.90;;;;;;4972419;28;20023;-53
2022/07/01 00:57:35;;;;;;;3.08;1.13;;;11.90;99.90;;;;;;4972503;28;20624;-58
2022/07/01 01:00:04;;;;;;;4.47;1.20;;;11.90;99.90;;;;;;4972540;28;20030;-45
2022/07/01 01:02:30;;;;;;;3.60;1.27;;;11.80;99.90;;;;;;4972258;28;20041;-54
2022/07/01 01:04:56;;;;;;;3.42;1.10;;;11.80;99.90;;;;;;4972600;28;20037;-44
2022/07/01 01:07:22;;;;;;;2.55;0.90;;;11.70;99.90;;;;;;4972294;28;20026;-53
2022/07/01 01:09:48;;;;;;;2.38;1.00;;;11.60;99.90;;;;;;4972377;28;20036;-49
2022/07/01 01:12:14;;;;;;;2.80;1.10;;;11.60;99.90;;;;;;4972935;28;20023;-55
2022/07/01 01:14:48;;;;;;;3.35;1.20;;;11.60;99.90;;;;;;4972028;28;20054;-54
2022/07/01 01:17:14;;;;;;;3.75;1.40;;;11.50;99.90;;;;;;4972362;28;20034;-52
2022/07/01 01:19:41;;;;;;;6.28;1.83;;;11.50;99.90;;;;;;4972098;28;20146;-47
2022/07/01 01:22:07;;;;;;;2.97;1.10;;;11.60;99.90;;;;;;4972363;28;20043;-57
2022/07/01 01:24:33;;;;;;;2.47;1.20;;;11.50;99.90;;;;;;4972249;28;20023;-53
2022/07/01 01:26:59;;;;;;;5.75;1.20;;;11.60;99.90;;;;;;4972115;28;20053;-55
2022/07/01 01:29:24;;;;;;;2.25;1.10;;;11.60;99.90;;;;;;4972219;28;20482;-54
2022/07/01 01:31:50;;;;;;;2.28;1.00;;;11.60;99.90;;;;;;4954697;28;20382;-53
2022/07/01 01:34:15;;;;;;;4.63;1.23;;;11.60;99.90;;;;;;4972204;28;20030;-54
2022/07/01 01:36:41;;;;;;;3.58;1.38;;;11.70;99.90;;;;;;4972111;28;20026;-55
2022/07/01 01:39:12;;;;;;;4.07;1.48;;;11.70;99.90;;;;;;4972179;28;20034;-55
2022/07/01 01:41:38;;;;;;;4.38;1.80;;;11.70;99.90;;;;;;4971810;28;20063;-48
2022/07/01 01:44:03;;;;;;;11.02;2.85;;;11.70;99.90;;;;;;4972061;28;20061;-60
2022/07/01 01:46:30;;;;;;;4.57;2.40;;;11.80;99.90;;;;;;4971944;28;20026;-54
2022/07/01 01:48:56;;;;;;;5.47;2.42;;;11.70;99.90;;;;;;4972241;28;20034;-53
2022/07/01 01:51:21;;;;;;;5.85;3.20;;;11.70;99.90;;;;;;4972054;28;20023;-46
2022/07/01 01:53:47;;;;;;;4.60;2.55;;;11.60;99.90;;;;;;4971911;28;20033;-56
2022/07/01 01:56:13;;;;;;;7.28;3.35;;;11.60;99.90;;;;;;4974680;28;20023;-58
2022/07/01 01:58:42;;;;;;;7.40;3.33;;;11.50;99.90;;;;;;4975921;28;20105;-57
2022/07/01 02:01:10;;;;;;;5.13;3.00;;;11.50;99.90;;;;;;4975944;28;20078;-50
2022/07/01 02:03:37;;;;;;;4.47;2.90;;;11.50;99.90;;;;;;4975547;28;20049;-41
2022/07/01 02:06:04;;;;;;;5.43;3.08;;;11.50;99.90;;;;;;4975832;28;20026;-59
2022/07/01 02:08:29;;;;;;;6.00;3.03;;;11.40;99.90;;;;;;4975558;28;20045;-56
2022/07/01 02:10:55;;;;;;;6.32;2.47;;;11.30;99.90;;;;;;4975392;28;20022;-48
2022/07/01 02:13:21;;;;;;;5.63;2.40;;;11.30;99.90;;;;;;4975808;28;20015;-57
2022/07/01 02:15:46;;;;;;;7.00;2.78;;;11.30;99.90;;;;;;4975498;28;20034;-48
2022/07/01 02:18:12;;;;;;;3.70;1.85;;;11.30;99.90;;;;;;4975449;28;20055;-52
2022/07/01 02:20:38;;;;;;;4.00;1.73;;;11.30;99.90;;;;;;4975593;28;20129;-55
2022/07/01 02:23:03;;;;;;;4.25;2.05;;;11.20;99.90;;;;;;4975358;28;20110;-52
2022/07/01 02:25:29;;;;;;;3.95;1.70;;;11.20;99.90;;;;;;4975422;28;20027;-48
2022/07/01 02:27:55;;;;;;;5.82;1.70;;;11.20;99.90;;;;;;4974879;28;20053;-50
2022/07/01 02:30:21;;;;;;;1.90;1.10;;;11.20;99.90;;;;;;4975465;28;20110;-57
2022/07/01 02:32:46;;;;;;;4.68;1.48;;;11.20;99.90;;;;;;4975231;28;20053;-58
2022/07/01 02:35:13;;;;;;;2.15;1.30;;;11.30;99.90;;;;;;4975023;28;20027;-59
2022/07/01 02:37:39;;;;;;;2.70;1.40;;;11.20;99.90;;;;;;4975166;28;20091;-51
2022/07/01 02:40:05;;;;;;;4.18;1.52;;;11.20;99.90;;;;;;4974938;28;20027;-61
2022/07/01 02:42:35;;;;;;;1.65;1.10;;;11.30;99.90;;;;;;4975194;28;20035;-57
2022/07/01 02:45:02;;;;;;;2.85;1.52;;;11.30;99.90;;;;;;4974770;28;20046;-39
2022/07/01 02:47:33;;;;;;;2.67;1.30;;;11.20;99.90;;;;;;4974837;28;20475;-39
2022/07/01 02:49:59;;;;;;;3.50;1.80;;;11.20;99.90;;;;;;4974735;28;20109;-39
2022/07/01 02:52:24;;;;;;;2.72;1.17;;;11.20;99.90;;;;;;4974830;28;20069;-38
2022/07/01 02:54:50;;;;;;;2.08;1.17;;;11.20;99.90;;;;;;4974338;28;20482;-38
2022/07/01 02:57:16;;;;;;;3.88;1.33;;;11.20;99.90;;;;;;4974544;28;20085;-49
2022/07/01 02:59:41;;;;;;;2.78;1.30;;;11.20;99.90;;;;;;4974506;28;20035;-38
2022/07/01 03:02:07;;;;;;;3.53;1.48;;;11.20;99.90;;;;;;4974456;28;20035;-38
2022/07/01 03:04:33;;;;;;;3.30;1.30;;;11.20;99.90;;;;;;4974455;28;20027;-38
2022/07/01 03:06:59;;;;;;;3.78;1.65;;;11.20;99.90;;;;;;4973366;28;20133;-38
2022/07/01 03:09:24;;;;;;;3.10;1.50;;;11.20;99.90;;;;;;4974304;28;20371;-58
2022/07/01 03:11:50;;;;;;;3.88;1.65;;;11.20;99.90;;;;;;4974555;28;20030;-55
2022/07/01 03:14:15;;;;;;;2.17;1.40;;;11.20;99.90;;;;;;4974453;28;20031;-58
2022/07/01 03:16:41;;;;;;;3.17;1.50;;;11.20;99.90;;;;;;4974384;28;20540;-50
2022/07/01 03:19:07;;;;;;;8.10;2.80;;;11.20;99.90;;;;;;4974485;28;20463;-59
2022/07/01 03:21:33;;;;;;;3.15;1.30;;;11.20;99.90;;;;;;4973446;28;20493;-60
2022/07/01 03:23:58;;;;;;;2.88;1.30;;;11.20;99.90;;;;;;4973979;28;20042;-50
2022/07/01 03:26:24;;;;;;;4.72;1.40;;;11.20;99.90;;;;;;4973889;28;20518;-59
2022/07/01 03:28:50;;;;;;;2.85;1.55;;;11.10;99.90;;;;;;4974057;28;20498;-38
2022/07/01 03:31:15;;;;;;;3.35;1.60;;;11.00;99.90;;;;;;4974069;28;20381;-38
2022/07/01 03:33:41;;;;;;;2.28;1.52;;;10.90;99.90;;;;;;4973999;28;20033;-39
2022/07/01 03:36:07;;;;;;;4.30;1.90;;;10.90;99.90;;;;;;4974125;28;20661;-58
2022/07/01 03:38:32;;;;;;;3.47;1.80;;;10.80;99.90;;;;;;4973947;28;20070;-54
2022/07/01 03:40:58;;;;;;;2.85;1.55;;;10.80;99.90;;;;;;4973993;28;20014;-55
2022/07/01 03:43:24;;;;;;;3.78;1.50;;;10.80;99.90;;;;;;4973840;28;20122;-53
2022/07/01 03:45:49;;;;;;;3.30;1.55;;;10.80;99.90;;;;;;4973786;28;20038;-57
2022/07/01 03:48:16;;;;;;;2.72;1.33;;;10.80;99.90;;;;;;4973844;28;20034;-59
2022/07/01 03:50:41;;;;;;;3.60;1.60;;;10.80;99.90;;;;;;4973679;28;20074;-55
2022/07/01 03:55:51;;;;;;;3.50;2.03;;;10.80;99.90;;;;;;4973725;28;20041;-56
2022/07/01 03:58:17;;;;;;;2.08;1.42;;;10.90;99.90;;;;;;4973614;28;20106;-57
2022/07/01 04:00:42;;;;;;;1.88;1.30;;;10.90;99.90;;;;;;4973592;28;20027;-51
2022/07/01 04:03:08;;;;;;;2.95;1.70;;;10.90;99.90;;;;;;4973400;28;20042;-39
2022/07/01 04:05:36;;;;;;;5.20;1.80;;;11.00;99.90;;;;;;4973339;28;20042;-39
2022/07/01 04:08:07;;;;;;;4.38;1.83;;;11.00;99.90;;;;;;4973151;28;20316;-39
2022/07/01 04:10:34;;;;;;;4.43;1.63;;;11.00;99.90;;;;;;4973515;28;20089;-37
2022/07/01 04:13:01;;;;;;;3.97;1.50;;;11.00;99.90;;;;;;4973306;28;20050;-46
2022/07/01 04:15:27;;;;;;;2.95;1.40;;;11.00;99.90;;;;;;4973319;28;20026;-48
2022/07/01 04:17:53;;;;;;;2.30;1.55;;;11.00;99.90;;;;;;4972851;28;20092;-54
2022/07/01 04:20:19;;;;;;;2.95;1.60;;;11.00;99.90;;;;;;4973337;28;20034;-38
2022/07/01 04:22:44;;;;;;;4.22;1.80;;;11.00;99.90;;;;;;4973212;28;20042;-54
2022/07/01 04:25:10;;;;;;;3.65;1.60;;;10.90;99.90;;;;;;4972978;28;20035;-55
2022/07/01 04:27:35;;;;;;;2.75;1.40;;;10.90;99.90;;;;;;4972925;28;20055;-51
2022/07/01 04:30:04;;;;;;;3.65;1.70;;;10.90;99.90;;;;;;4972865;28;20029;-54
2022/07/01 04:32:30;;;;;;;4.78;1.88;;;10.90;99.90;;;;;;4972960;28;20101;-49
2022/07/01 04:34:56;;;;;;;2.83;1.58;;;10.90;99.90;;;;;;4972675;28;20030;-57
2022/07/01 04:37:22;;;;;;;4.05;2.00;;;10.80;99.90;;;;;;4973042;28;20026;-52
2022/07/01 04:39:48;;;;;;;3.90;1.80;;;10.80;99.90;;;;;;4973036;28;20057;-53
2022/07/01 04:42:15;;;;;;;3.97;1.95;;;10.80;99.90;;;;;;4972596;28;20054;-51
2022/07/01 04:44:41;;;;;;;4.45;1.88;;;10.80;99.90;;;;;;4972852;28;20068;-45
2022/07/01 04:47:06;;;;;;;4.22;2.08;;;10.80;99.90;;;;;;4972528;28;20035;-59
2022/07/01 04:49:32;;;;;;;2.90;1.75;;;10.80;99.90;;;;;;4972558;28;20027;-47
2022/07/01 04:51:59;;;;;;;4.10;1.90;;;10.80;99.90;;;;;;4972647;28;20732;-57
2022/07/01 04:54:25;;;;;;;4.60;2.10;;;10.80;99.90;;;;;;4972901;28;20030;-56
2022/07/01 04:56:52;;;;;;;3.00;1.73;;;10.90;99.90;;;;;;4972512;28;20035;-44
2022/07/01 04:59:19;;;;;;;3.65;1.67;;;11.10;99.90;;;;;;4971256;28;20179;-51
2022/07/01 05:01:48;;;;;;;3.78;1.58;;;11.60;99.90;;;;;;4972528;28;20105;-56
2022/07/01 05:04:14;;;;;;;2.33;1.25;;;12.20;99.90;;;;;;4972618;28;20034;-55
2022/07/01 05:06:40;;;;;;;4.75;1.88;;;12.80;99.90;;;;;;4972628;28;20050;-55
2022/07/01 05:09:06;;;;;;;3.65;1.55;;;13.30;99.90;;;;;;4972365;28;20058;-54
2022/07/01 05:11:32;;;;;;;2.10;1.05;;;13.80;99.90;;;;;;4972592;28;20034;-58
2022/07/01 05:13:57;;;;;;;4.18;1.30;;;14.10;99.30;;;;;;4972370;28;20122;-51
2022/07/01 05:16:23;;;;;;;4.03;1.20;;;14.30;98.60;;;;;;4972252;28;20034;-52
2022/07/01 05:24:17;;;;;;;2.42;1.17;;;14.40;98.60;;;;;;4972160;28;20093;-48
2022/07/01 05:26:42;;;;;;;2.38;1.20;;;14.10;98.90;;;;;;4970853;28;20772;-58
2022/07/01 05:29:08;;;;;;;4.28;1.23;;;13.80;99.80;;;;;;4972588;28;20031;-54
2022/07/01 05:31:34;;;;;;;3.05;1.17;;;13.70;99.90;;;;;;4978163;28;20026;-55
2022/07/01 05:34:00;;;;;;;4.28;1.42;;;13.50;99.90;;;;;;4978809;28;20057;-52
2022/07/01 05:36:26;;;;;;;2.97;1.30;;;13.40;99.90;;;;;;4978625;28;20023;-59
2022/07/01 05:38:52;;;;;;;4.65;1.10;;;13.30;99.90;;;;;;4978408;28;20110;-52
2022/07/01 05:41:18;;;;;;;2.45;1.38;;;13.40;99.90;;;;;;4978392;28;20841;-57
2022/07/01 05:43:44;;;;;;;3.80;1.40;;;13.40;99.90;;;;;;4978269;28;20050;-50
2022/07/01 05:46:10;;;;;;;2.28;1.23;;;13.70;99.90;;;;;;4978560;28;20035;-52
2022/07/01 05:48:36;;;;;;;2.00;1.20;;;14.00;99.90;;;;;;4978240;28;20046;-51
2022/07/01 05:51:02;;;;;;;2.33;1.50;;;14.40;99.90;;;;;;4978526;28;20034;-53
2022/07/01 05:53:28;;;;;;;4.57;1.92;;;14.90;99.90;;;;;;4978513;28;20031;-54
2022/07/01 05:55:54;;;;;;;4.57;1.60;;;15.40;99.10;;;;;;4978272;28;20023;-53
2022/07/01 05:58:19;;;;;;;3.00;1.30;;;16.10;98.30;;;;;;4978448;28;20557;-49
2022/07/01 06:00:45;;;;;;;1.98;1.10;;;16.70;96.70;;;;;;4978365;28;20063;-60
2022/07/01 06:03:13;;;;;;;4.03;1.15;;;17.40;95.30;;;;;;4961031;28;20375;-55
2022/07/01 06:05:39;;;;;;;3.60;1.17;;;18.10;94.50;;;;;;4978155;28;20023;-42
2022/07/01 06:08:05;;;;;;;1.70;0.88;;;18.80;92.40;;;;;;4978261;28;20030;-57
2022/07/01 06:10:32;;;;;;;7.10;1.27;;;19.40;92.00;;;;;;4978153;28;20022;-57
2022/07/01 06:12:57;;;;;;;3.17;1.30;;;19.70;87.50;;;;;;4978119;28;20393;-42
2022/07/01 06:15:24;;;;;;;3.60;1.30;;;20.40;90.00;;;;;;4978442;28;20015;-48
2022/07/01 06:17:49;;;;;;;3.70;1.15;;;20.90;90.30;;;;;;4977961;28;20042;-46
2022/07/01 06:20:15;;;;;;;3.03;1.10;;;21.40;84.50;;;;;;4977221;28;20026;-59
2022/07/01 06:22:41;;;;;;;2.45;1.05;;;21.90;83.40;;;;;;4978000;28;20114;-55
2022/07/01 06:25:07;;;;;;;2.03;0.77;;;22.30;82.50;;;;;;4978284;28;20019;-46
2022/07/01 06:27:41;;;;;;;3.40;1.08;;;22.50;79.90;;;;;;4978046;28;20405;-42
2022/07/01 06:30:08;;;;;;;3.35;1.00;;;22.30;79.60;;;;;;4978058;28;20114;-44
2022/07/01 06:32:33;;;;;;;3.83;1.00;;;22.40;77.60;;;;;;4977942;28;20034;-53
2022/07/01 06:34:59;;;;;;;3.97;1.20;;;22.80;77.60;;;;;;4978135;28;20031;-55
2022/07/01 06:37:25;;;;;;;5.18;1.25;;;23.10;76.60;;;;;;4977858;28;20029;-49
2022/07/01 06:39:50;;;;;;;2.53;1.05;;;23.60;75.20;;;;;;4977986;28;20037;-55
2022/07/01 06:42:16;;;;;;;5.40;1.02;;;23.80;76.50;;;;;;4975298;28;20042;-56
2022/07/01 06:44:42;;;;;;;3.88;1.10;;;24.20;71.90;;;;;;4974865;28;20038;-50
2022/07/01 06:47:08;;;;;;;4.32;1.00;;;24.90;69.10;;;;;;4970964;28;20041;-55
2022/07/01 06:49:34;;;;;;;3.20;0.88;;;25.20;69.80;;;;;;4974732;28;20030;-40
2022/07/01 06:51:59;;;;;;;2.95;0.88;;;25.20;68.70;;;;;;4974586;28;20118;-50
2022/07/01 06:54:25;;;;;;;3.22;0.80;;;25.40;67.70;;;;;;4974665;28;20018;-40
2022/07/01 06:56:51;;;;;;;3.38;0.77;;;25.40;64.90;;;;;;4974887;28;20102;-53
2022/07/01 06:59:16;;;;;;;1.63;0.60;;;25.70;67.30;;;;;;4973423;28;20022;-48
2022/07/01 07:01:42;;;;;;;2.78;0.88;;;25.70;62.60;;;;;;4973514;28;20019;-41
2022/07/01 07:04:08;;;;;;;2.45;0.80;;;25.40;61.20;;;;;;4972594;28;20042;-55
2022/07/01 07:06:34;;;;;;;2.97;0.98;;;25.20;65.20;;;;;;4972136;28;20027;-52
2022/07/01 07:08:59;;;;;;;2.40;0.90;;;25.20;63.70;;;;;;4969437;28;20562;-49
2022/07/01 07:11:27;;;;;;;3.45;1.02;;;25.60;65.60;;;;;;4950786;28;20600;-54
2022/07/01 07:13:52;;;;;;;2.97;1.10;;;26.10;59.70;;;;;;4972674;28;20023;-55
2022/07/01 07:16:21;;;;;;;3.42;0.98;;;26.00;59.90;;;;;;4973252;28;20382;-55
2022/07/01 07:18:48;;;;;;;3.17;1.40;;;26.10;60.10;;;;;;4969459;28;20019;-58
2022/07/01 07:21:13;;;;;;;2.08;0.85;;;25.80;58.60;;;;;;4973550;28;20023;-46
2022/07/01 07:23:40;;;;;;;2.50;0.70;;;25.90;61.80;;;;;;4973726;28;20065;-44
2022/07/01 07:26:06;;;;;;;2.13;0.50;;;26.20;57.40;;;;;;4973662;28;20023;-50
2022/07/01 07:28:32;;;;;;;2.20;0.80;;;26.60;59.30;;;;;;4973357;28;20025;-53
2022/07/01 07:30:57;;;;;;;1.83;0.70;;;26.70;59.40;;;;;;4974031;28;20057;-55
2022/07/01 07:33:23;;;;;;;2.28;0.95;;;26.80;55.40;;;;;;4973897;28;20050;-52
2022/07/01 07:35:49;;;;;;;2.55;1.00;;;26.90;52.70;;;;;;4974125;28;20034;-55
2022/07/01 07:38:14;;;;;;;2.35;0.88;;;26.30;53.20;;;;;;4974069;28;20405;-47
2022/07/01 07:40:41;;;;;;;3.65;0.70;;;25.80;56.00;;;;;;4973464;28;20090;-57
2022/07/01 07:43:07;;;;;;;2.58;0.70;;;25.90;54.80;;;;;;4973744;28;20517;-59
2022/07/01 07:45:34;;;;;;;2.30;0.80;;;25.80;56.10;;;;;;4973055;28;20050;-54
2022/07/01 07:48:00;;;;;;;4.25;0.65;;;25.70;59.20;;;;;;4973697;28;20078;-54
2022/07/01 07:50:26;;;;;;;2.35;0.82;;;26.20;53.60;;;;;;4972693;28;20467;-52
2022/07/01 07:52:52;;;;;;;4.30;0.80;;;26.20;54.00;;;;;;4972882;28;20030;-48
2022/07/01 07:55:18;;;;;;;2.90;0.60;;;26.20;55.90;;;;;;4969980;28;20355;-48
2022/07/01 07:57:44;;;;;;;3.63;1.02;;;26.50;51.50;;;;;;4973087;28;20034;-53
2022/07/01 08:00:12;;;;;;;3.40;0.75;;;26.20;54.00;;;;;;4973675;28;20026;-50
2022/07/01 08:02:39;;;;;;;3.28;0.80;;;25.30;53.60;;;;;;4973146;28;20089;-47
2022/07/01 08:05:05;;;;;;;1.63;0.65;;;25.10;59.40;;;;;;4973472;28;20026;-59
2022/07/01 08:07:36;;;;;;;2.85;0.57;;;25.60;55.00;;;;;;4973265;28;20082;-50
2022/07/01 08:10:01;;;;;;;2.13;0.70;;;25.40;56.20;;;;;;4956325;28;20381;-54
2022/07/01 08:12:27;;;;;;;2.63;0.70;;;25.30;57.20;;;;;;4972930;28;20027;-55
2022/07/01 08:14:53;;;;;;;4.32;0.82;;;24.60;55.90;;;;;;4973174;28;20449;-55
2022/07/01 08:17:19;;;;;;;1.77;0.60;;;24.70;61.60;;;;;;4973222;28;20475;-52
2022/07/01 08:19:44;;;;;;;3.53;0.73;;;24.80;58.00;;;;;;4972395;28;20057;-55
2022/07/01 08:22:10;;;;;;;2.38;0.70;;;25.00;59.00;;;;;;4973025;28;20049;-51
2022/07/01 08:24:35;;;;;;;2.22;0.85;;;25.00;57.80;;;;;;4972404;28;20034;-56
2022/07/01 08:27:01;;;;;;;4.63;0.88;;;24.90;55.40;;;;;;4972560;28;20098;-47
2022/07/01 08:29:27;;;;;;;2.40;0.70;;;25.60;59.60;;;;;;4972927;28;20201;-51
2022/07/01 08:31:52;;;;;;;4.35;0.90;;;25.40;60.10;;;;;;4972859;28;20127;-52
2022/07/01 08:34:18;;;;;;;2.80;0.70;;;26.00;55.20;;;;;;4972833;28;20063;-55
2022/07/01 08:36:44;;;;;;;2.75;0.73;;;26.60;54.90;;;;;;4971881;28;20033;-54
2022/07/01 08:39:09;;;;;;;4.43;0.80;;;26.90;54.50;;;;;;4972339;28;20049;-48
2022/07/01 08:41:35;;;;;;;4.07;0.82;;;27.20;54.20;;;;;;4972631;28;20077;-55
2022/07/01 08:44:01;;;;;;;1.70;0.70;;;27.50;55.50;;;;;;4971995;28;20045;-49
2022/07/01 08:46:27;;;;;;;4.40;0.88;;;27.80;52.30;;;;;;4972363;28;20023;-52
2022/07/01 08:48:53;;;;;;;1.40;0.68;;;27.10;51.70;;;;;;4972419;28;20041;-47
2022/07/01 08:51:19;;;;;;;3.75;1.10;;;26.50;54.40;;;;;;4971584;28;20057;-55
2022/07/01 08:53:45;;;;;;;2.22;0.88;;;25.90;52.80;;;;;;4971778;28;20034;-52
2022/07/01 08:58:55;;;;;;;5.30;1.20;;;23.60;59.10;;;;;;4971887;28;20081;-58
2022/07/01 09:01:25;;;;;;;3.47;0.90;;;24.00;65.00;;;;;;4972834;28;20030;-56
2022/07/01 09:03:54;;;;;;;3.63;1.67;;;23.90;61.30;;;;;;4972064;28;20053;-52
2022/07/01 09:06:23;;;;;;;3.03;0.77;;;23.20;59.10;;;;;;4971832;28;20047;-47
2022/07/01 09:08:49;;;;;;;1.95;0.52;;;22.20;61.40;;;;;;4971278;28;20038;-59
2022/07/01 09:11:16;;;;;;;1.35;0.60;;;22.80;65.80;;;;;;4970329;28;20019;-52
2022/07/01 09:13:42;;;;;;;2.65;0.75;;;23.50;61.90;;;;;;4970234;28;20023;-60
2022/07/01 09:16:15;;;;;;;1.52;0.93;;;24.60;66.40;;;;;;4970225;28;20106;-58
2022/07/01 09:19:00;;;;;;;5.10;0.80;;;25.10;57.20;;;;;;4970374;28;20106;-53
2022/07/01 09:21:29;;;;;;;2.75;0.90;;;24.10;56.70;;;;;;4969946;28;20026;-53
2022/07/01 09:23:55;;;;;;;2.78;0.80;;;24.40;62.40;;;;;;4954060;28;20035;-56
2022/07/01 09:26:21;;;;;;;2.50;0.90;;;24.70;59.10;;;;;;4971641;28;20471;-50
2022/07/01 09:28:56;;;;;;;2.92;0.80;;;24.30;58.60;;;;;;4971826;28;20033;-54
2022/07/01 09:31:35;;;;;;;2.25;0.80;;;24.10;60.00;;;;;;4972176;28;20026;-45
2022/07/01 09:34:10;;;;;;;2.13;0.90;;;24.00;61.80;;;;;;4959420;28;20039;-56
2022/07/01 09:36:40;;;;;;;3.55;0.80;;;23.70;65.10;;;;;;4954699;28;20494;-50
2022/07/01 09:39:06;;;;;;;3.75;0.90;;;23.30;61.80;;;;;;4959156;28;20447;-44
2022/07/01 09:41:38;;;;;;;4.72;1.20;;;23.30;63.80;;;;;;4971947;28;20034;-43
2022/07/01 09:44:08;;;;;;;2.97;1.08;;;22.80;64.60;;;;;;4972056;28;20031;-43
2022/07/01 09:46:34;;;;;;;6.97;2.28;;;22.30;66.10;;;;;;4972018;28;20031;-51
2022/07/01 09:49:00;;;;;;;5.05;0.93;;;21.90;69.30;;;;;;4971880;28;20034;-45
2022/07/01 09:51:26;;;;;;;3.38;0.90;;;22.30;66.80;;;;;;4971851;28;20027;-43
2022/07/01 09:53:52;;;;;;;1.98;0.80;;;21.90;66.10;;;;;;4971798;28;20054;-39
2022/07/01 09:56:19;;;;;;;2.30;0.90;;;21.60;71.00;;;;;;4972049;28;20023;-50
2022/07/01 09:58:45;;;;;;;6.10;1.15;;;22.20;73.30;;;;;;4971752;28;20027;-41
2022/07/01 10:01:13;;;;;;;3.67;1.00;;;23.30;69.80;;;;;;4972055;28;20027;-45
2022/07/01 10:03:40;;;;;;;3.87;0.90;;;23.60;62.60;;;;;;4971805;28;20046;-47
2022/07/01 10:06:06;;;;;;;2.50;0.75;;;23.70;67.00;;;;;;4971689;28;20027;-44
2022/07/01 10:08:55;;;;;;;6.32;1.30;;;24.40;66.50;;;;;;4971929;28;20446;-45
2022/07/01 10:11:47;;;;;;;3.60;1.15;;;24.10;62.20;;;;;;4958517;28;20110;-52
2022/07/01 10:14:15;;;;;;;4.65;1.20;;;23.70;63.20;;;;;;4971683;28;20035;-53
2022/07/01 10:16:40;;;;;;;3.33;1.00;;;22.90;64.60;;;;;;4973790;28;20359;-51
2022/07/01 10:19:30;;;;;;;4.72;1.38;;;22.90;72.50;;;;;;4975344;28;20041;-58
2022/07/01 10:22:00;;;;;;;5.00;1.05;;;23.40;69.60;;;;;;4973981;28;20038;-53
2022/07/01 10:24:27;;;;;;;4.63;0.95;;;23.20;66.80;;;;;;4975246;28;20033;-50
2022/07/01 10:26:59;;;;;;;4.82;1.20;;;22.20;68.10;;;;;;4974933;28;20057;-55
2022/07/01 10:29:36;;;;;;;4.38;1.20;;;21.50;76.60;;;;;;4957832;28;20482;-56
2022/07/01 10:32:11;;;;;;;6.47;1.27;;;20.80;77.20;;;;;;4975017;28;20022;-58
2022/07/01 10:34:39;;;;;;;4.90;1.60;;;20.30;83.40;;;;;;4975184;28;20086;-48
2022/07/01 10:37:08;;;;;;;4.47;1.42;;;19.80;87.20;;;;;;4974904;28;20027;-53
2022/07/01 10:40:06;;;;;;;3.28;1.25;;;19.40;88.50;;;;;;4975243;28;20034;-55
2022/07/01 10:42:55;;;;;;;4.22;1.30;;;18.90;90.50;;;;;;4959369;28;20039;-51
2022/07/01 10:45:21;;;;;;;8.00;1.38;;;18.80;92.00;;;;;;4974638;28;20034;-54
2022/07/01 10:47:46;;;;;;;5.18;1.40;;;18.70;91.90;;;;;;4974871;28;20360;-51
2022/07/01 10:50:16;;;;;;;5.25;1.25;;;18.60;92.30;;;;;;4974884;28;20389;-52
2022/07/01 10:53:02;;;;;;;4.18;1.17;;;18.70;93.60;;;;;;4974888;28;20101;-52
2022/07/01 10:55:39;;;;;;;6.57;1.85;;;18.90;91.90;;;;;;4957400;28;20121;-61
2022/07/01 10:58:05;;;;;;;3.05;1.00;;;19.60;91.60;;;;;;4974853;28;20572;-55
2022/07/01 11:00:34;;;;;;;3.85;1.10;;;20.50;85.80;;;;;;4974765;28;20031;-58
2022/07/01 11:03:27;;;;;;;5.50;1.30;;;20.70;82.20;;;;;;4974431;28;20110;-55
2022/07/01 11:05:55;;;;;;;4.35;1.08;;;21.40;86.20;;;;;;4973850;28;20799;-51
2022/07/01 11:08:22;;;;;;;3.45;0.90;;;21.70;81.10;;;;;;4974688;28;20030;-46
2022/07/01 11:10:54;;;;;;;5.13;1.10;;;21.70;82.60;;;;;;4974350;28;20130;-53
2022/07/01 11:13:20;;;;;;;4.30;1.10;;;21.40;75.40;;;;;;4974707;28;20047;-55
2022/07/01 11:15:47;;;;;;;6.72;1.60;;;21.10;80.00;;;;;;4974718;28;20046;-52
2022/07/01 11:18:18;;;;;;;3.70;1.13;;;21.50;84.30;;;;;;4974552;28;20358;-56
2022/07/01 11:20:44;;;;;;;5.90;1.63;;;21.40;78.40;;;;;;4974503;28;20026;-54
2022/07/01 11:23:11;;;;;;;5.13;1.42;;;21.50;73.50;;;;;;4974224;28;20035;-56
2022/07/01 11:25:36;;;;;;;6.28;1.48;;;21.30;75.30;;;;;;4973098;28;20076;-51
2022/07/01 11:28:02;;;;;;;6.38;1.25;;;21.80;76.50;;;;;;4971158;28;20042;-52
2022/07/01 11:30:28;;;;;;;4.57;1.17;;;22.40;71.20;;;;;;4972876;28;20023;-43
2022/07/01 11:32:58;;;;;;;3.13;1.00;;;22.60;73.70;;;;;;4972909;28;20106;-54
2022/07/01 11:41:06;;;;;;;4.15;1.00;;;22.50;68.90;;;;;;4970834;28;20512;-56
2022/07/01 11:43:39;;;;;;;3.77;1.10;;;22.40;74.00;;;;;;4972715;28;20486;-49
2022/07/01 11:46:07;;;;;;;4.18;1.10;;;22.80;69.90;;;;;;4972634;28;20764;-52
2022/07/01 11:48:41;;;;;;;4.20;0.90;;;23.50;76.70;;;;;;4973080;28;20109;-49
2022/07/01 11:51:12;;;;;;;5.63;1.00;;;23.80;71.00;;;;;;4971101;28;20029;-43
2022/07/01 11:53:49;;;;;;;4.43;1.15;;;24.30;68.40;;;;;;4973530;28;20102;-55
2022/07/01 11:56:17;;;;;;;6.43;1.65;;;24.30;64.30;;;;;;4973099;28;20456;-50
2022/07/01 11:58:51;;;;;;;3.35;0.80;;;24.60;66.10;;;;;;4973586;28;20023;-60
2022/07/01 12:01:25;;;;;;;4.10;1.13;;;24.50;61.10;;;;;;4971201;28;20034;-51
2022/07/01 12:03:51;;;;;;;3.38;0.95;;;24.40;65.20;;;;;;4967098;28;20045;-47
2022/07/01 12:06:19;;;;;;;2.90;0.90;;;24.40;59.50;;;;;;4972661;28;20093;-54
2022/07/01 12:08:47;;;;;;;5.13;0.95;;;23.80;65.60;;;;;;4972919;28;20102;-52
2022/07/01 12:11:13;;;;;;;4.95;0.77;;;23.90;66.10;;;;;;4973697;28;20022;-49
2022/07/01 12:13:38;;;;;;;3.92;0.90;;;24.10;63.30;;;;;;4972771;28;20368;-55
2022/07/01 12:16:09;;;;;;;2.78;0.82;;;24.30;70.50;;;;;;4972821;28;20030;-59
2022/07/01 12:18:34;;;;;;;2.88;1.02;;;24.20;61.20;;;;;;4970247;28;20019;-50
2022/07/01 12:21:01;;;;;;;4.45;1.17;;;23.90;65.40;;;;;;4954985;28;20390;-38
2022/07/01 12:23:26;;;;;;;4.20;1.20;;;23.50;63.40;;;;;;4971648;28;20465;-50
2022/07/01 12:25:52;;;;;;;2.83;0.80;;;23.30;67.00;;;;;;4970806;28;20023;-46
2022/07/01 12:28:38;;;;;;;4.43;0.82;;;23.40;64.10;;;;;;4969365;28;20031;-53
2022/07/01 12:31:07;;;;;;;4.45;1.00;;;23.30;63.80;;;;;;4973022;28;20047;-54
2022/07/01 12:33:38;;;;;;;4.28;1.15;;;23.30;66.10;;;;;;4972789;28;20033;-47
2022/07/01 12:36:06;;;;;;;4.57;1.00;;;23.00;63.70;;;;;;4972827;28;20478;-50
2022/07/01 12:38:32;;;;;;;3.50;1.00;;;22.80;70.60;;;;;;4972657;28;20443;-49
2022/07/01 12:40:58;;;;;;;4.97;1.13;;;22.90;67.60;;;;;;4972935;28;20018;-58
2022/07/01 12:43:29;;;;;;;3.30;1.05;;;23.00;67.60;;;;;;4972712;28;20045;-42
2022/07/01 12:45:59;;;;;;;5.10;1.30;;;23.30;69.80;;;;;;4972917;28;20026;-58
2022/07/01 12:48:25;;;;;;;5.03;1.10;;;23.60;67.80;;;;;;4972844;28;20431;-57
2022/07/01 12:50:58;;;;;;;3.28;0.80;;;23.40;64.50;;;;;;4972522;28;20402;-55
2022/07/01 12:53:25;;;;;;;5.28;1.00;;;23.40;68.00;;;;;;4972789;28;20112;-50
2022/07/01 12:55:56;;;;;;;4.53;0.90;;;23.20;63.20;;;;;;4972425;28;20023;-49
2022/07/01 12:58:27;;;;;;;2.80;0.90;;;23.10;67.50;;;;;;4972755;28;20043;-49
2022/07/01 13:00:55;;;;;;;2.25;0.73;;;23.20;64.40;;;;;;4971948;28;20070;-48
2022/07/01 13:03:22;;;;;;;3.88;0.82;;;22.70;64.60;;;;;;4971905;28;20038;-52
2022/07/01 13:05:50;;;;;;;2.50;0.90;;;22.30;65.50;;;;;;4971781;28;20031;-46